Time;durP1;ratioP1;P1;durP2;ratioP2;P2;SDS_P1;SDS_P2;PMS_P1;PMS_P2;Temp;Humidity;BMP_temperature;BMP_pressure;BME280_temperature;BME280_humidity;BME280_pressure;Samples;Min_cycle;Max_cycle;Signal;HPM_P1;HPM_P2
2022/07/10 00:00:30;;;;;;;6.50;4.50;;;17.80;99.90;;;;;;5043312;28;20568;-66
2022/07/10 00:02:59;;;;;;;5.60;4.50;;;17.80;99.90;;;;;;5033728;28;20232;-69
2022/07/10 00:05:26;;;;;;;5.97;4.13;;;17.80;99.90;;;;;;5034093;28;20583;-67
2022/07/10 00:07:53;;;;;;;6.40;4.33;;;17.80;99.90;;;;;;5036848;28;20672;-65
2022/07/10 00:10:21;;;;;;;7.67;4.23;;;17.80;99.90;;;;;;5036005;28;20742;-66
2022/07/10 00:12:49;;;;;;;5.07;4.00;;;17.80;99.90;;;;;;5033373;28;20209;-66
2022/07/10 00:15:16;;;;;;;6.10;4.37;;;17.80;99.90;;;;;;5033309;28;20301;-64
2022/07/10 00:17:44;;;;;;;7.13;4.10;;;17.70;99.90;;;;;;5034684;28;20224;-65
2022/07/10 00:20:13;;;;;;;5.27;4.30;;;17.70;99.90;;;;;;5033958;28;20198;-66
2022/07/10 00:22:41;;;;;;;6.00;4.07;;;17.60;99.90;;;;;;5052107;28;20292;-69
2022/07/10 00:25:11;;;;;;;5.90;4.20;;;17.60;99.90;;;;;;5053194;28;20209;-66
2022/07/10 00:27:37;;;;;;;6.03;4.03;;;17.60;99.90;;;;;;5053178;28;20210;-66
2022/07/10 00:30:05;;;;;;;5.47;4.03;;;17.60;99.90;;;;;;5052956;28;20272;-65
2022/07/10 00:32:32;;;;;;;6.20;4.23;;;17.60;99.90;;;;;;5048871;28;20290;-64
2022/07/10 00:34:59;;;;;;;7.37;4.30;;;17.60;99.90;;;;;;5032253;28;20272;-65
2022/07/10 00:37:28;;;;;;;5.80;4.07;;;17.60;99.90;;;;;;5052342;28;20571;-65
2022/07/10 00:39:54;;;;;;;8.27;4.20;;;17.60;99.90;;;;;;5052133;28;20877;-64
2022/07/10 00:42:22;;;;;;;8.10;4.40;;;17.50;99.90;;;;;;5052848;28;20633;-66
2022/07/10 00:44:49;;;;;;;6.47;4.10;;;17.50;99.90;;;;;;5052854;28;20222;-64
2022/07/10 00:47:19;;;;;;;4.40;4.00;;;17.60;99.90;;;;;;5041750;28;20223;-67
2022/07/10 00:49:46;;;;;;;4.80;4.00;;;17.60;99.90;;;;;;5052899;28;20220;-66
2022/07/10 00:52:15;;;;;;;6.40;4.00;;;17.60;99.90;;;;;;5052719;28;20225;-65
2022/07/10 00:54:46;;;;;;;4.70;3.93;;;17.70;99.90;;;;;;5052033;28;20241;-65
2022/07/10 00:57:15;;;;;;;4.70;3.70;;;17.70;99.90;;;;;;5050666;28;20296;-65
2022/07/10 00:59:42;;;;;;;5.50;3.97;;;17.70;99.90;;;;;;5052115;28;20218;-65
2022/07/10 01:02:10;;;;;;;6.13;4.27;;;17.70;99.90;;;;;;5052357;28;20288;-65
2022/07/10 01:04:37;;;;;;;5.43;4.20;;;17.80;99.90;;;;;;5052560;28;20201;-65
2022/07/10 01:07:04;;;;;;;5.43;4.50;;;17.80;99.90;;;;;;5050847;28;20680;-65
2022/07/10 01:09:32;;;;;;;5.10;4.50;;;17.70;99.90;;;;;;5052294;28;20227;-65
2022/07/10 01:12:02;;;;;;;8.10;4.50;;;17.60;99.90;;;;;;5052473;28;20300;-65
2022/07/10 01:14:29;;;;;;;6.97;4.57;;;17.60;99.90;;;;;;5052491;28;20653;-65
2022/07/10 01:16:56;;;;;;;6.00;4.63;;;17.60;99.90;;;;;;5040925;28;20210;-65
2022/07/10 01:19:24;;;;;;;7.80;5.10;;;17.50;99.90;;;;;;5032411;28;20221;-65
2022/07/10 01:21:52;;;;;;;6.33;4.73;;;17.50;99.90;;;;;;5032741;28;20273;-69
2022/07/10 01:24:19;;;;;;;6.70;4.80;;;17.40;99.90;;;;;;5032721;28;20298;-66
2022/07/10 01:26:46;;;;;;;7.63;4.93;;;17.40;99.90;;;;;;5035096;28;20598;-65
2022/07/10 01:29:13;;;;;;;7.67;5.27;;;17.30;99.90;;;;;;5051823;28;20289;-66
2022/07/10 01:31:40;;;;;;;11.13;5.27;;;17.20;99.90;;;;;;5050229;28;20295;-68
2022/07/10 01:34:10;;;;;;;7.90;4.93;;;17.20;99.90;;;;;;5032105;28;20270;-65
2022/07/10 01:36:37;;;;;;;8.70;5.33;;;17.10;99.90;;;;;;5039899;28;20217;-65
2022/07/10 01:39:06;;;;;;;7.10;5.20;;;17.00;99.90;;;;;;5051922;28;20211;-65
2022/07/10 01:41:34;;;;;;;7.60;5.70;;;17.00;99.90;;;;;;5051686;28;20261;-66
2022/07/10 01:44:01;;;;;;;8.20;5.73;;;17.00;99.90;;;;;;5051940;28;20249;-65
2022/07/10 01:46:28;;;;;;;10.03;5.90;;;16.90;99.90;;;;;;5049685;28;20614;-66
2022/07/10 01:48:55;;;;;;;8.80;5.93;;;16.90;99.90;;;;;;5051696;28;20322;-66
2022/07/10 01:51:23;;;;;;;10.83;5.53;;;16.80;99.90;;;;;;5051348;28;20261;-65
2022/07/10 01:53:49;;;;;;;8.50;5.77;;;16.70;99.90;;;;;;5051612;28;20207;-65
2022/07/10 01:56:18;;;;;;;9.70;7.27;;;16.70;99.90;;;;;;5045530;28;20313;-67
2022/07/10 01:58:45;;;;;;;9.40;7.00;;;16.70;99.90;;;;;;5032074;28;20204;-66
2022/07/10 02:01:12;;;;;;;8.27;6.63;;;16.70;99.90;;;;;;5031596;28;20257;-64
2022/07/10 02:06:24;;;;;;;7.10;5.80;;;16.60;99.90;;;;;;5054274;28;20685;-65
2022/07/10 02:08:51;;;;;;;11.40;6.43;;;16.60;99.90;;;;;;5055689;28;20236;-65
2022/07/10 02:11:19;;;;;;;8.60;6.23;;;16.50;99.90;;;;;;5055802;28;20207;-66
2022/07/10 02:13:46;;;;;;;8.13;6.60;;;16.50;99.90;;;;;;5051872;28;20199;-64
2022/07/10 02:16:13;;;;;;;8.03;6.20;;;16.40;99.90;;;;;;5039310;28;20718;-64
2022/07/10 02:18:40;;;;;;;12.60;7.40;;;16.40;99.90;;;;;;5053316;28;20261;-66
2022/07/10 02:21:07;;;;;;;11.60;6.80;;;16.30;99.90;;;;;;5053782;28;20204;-65
2022/07/10 02:23:35;;;;;;;9.40;6.40;;;16.40;99.90;;;;;;5055146;28;20254;-65
2022/07/10 02:26:02;;;;;;;11.20;6.30;;;16.40;99.90;;;;;;5055791;28;20202;-66
2022/07/10 02:28:30;;;;;;;10.27;6.63;;;16.40;99.90;;;;;;5055247;28;20244;-65
2022/07/10 02:30:57;;;;;;;8.93;6.23;;;16.40;99.90;;;;;;5054455;28;20587;-64
2022/07/10 02:33:24;;;;;;;9.20;6.10;;;16.40;99.90;;;;;;5054948;28;20207;-65
2022/07/10 02:35:51;;;;;;;8.37;6.23;;;16.30;99.90;;;;;;5055579;28;20285;-65
2022/07/10 02:38:18;;;;;;;9.57;6.97;;;16.40;99.90;;;;;;5054955;28;20308;-65
2022/07/10 02:40:45;;;;;;;10.53;6.50;;;16.40;99.90;;;;;;5049110;28;20295;-65
2022/07/10 02:43:12;;;;;;;7.80;5.80;;;16.40;99.90;;;;;;5055158;28;20225;-66
2022/07/10 02:45:40;;;;;;;8.77;6.20;;;16.40;99.90;;;;;;5054960;28;20260;-64
2022/07/10 02:48:07;;;;;;;9.67;6.20;;;16.50;99.90;;;;;;5055054;28;20220;-66
2022/07/10 02:50:34;;;;;;;11.47;7.07;;;16.50;99.90;;;;;;5039919;28;20303;-65
2022/07/10 02:53:02;;;;;;;10.37;6.63;;;16.50;99.90;;;;;;5052529;28;20293;-65
2022/07/10 02:55:31;;;;;;;9.43;6.60;;;16.50;99.90;;;;;;5054653;28;20214;-66
2022/07/10 02:57:58;;;;;;;8.70;5.90;;;16.60;99.90;;;;;;5055100;28;20588;-64
2022/07/10 03:00:25;;;;;;;9.13;6.43;;;16.60;99.90;;;;;;5053118;28;20298;-66
2022/07/10 03:02:54;;;;;;;8.20;5.70;;;16.60;99.90;;;;;;5054747;28;20263;-65
2022/07/10 03:05:21;;;;;;;9.90;6.17;;;16.60;99.90;;;;;;5054853;28;20208;-64
2022/07/10 03:07:47;;;;;;;8.10;6.17;;;16.70;99.90;;;;;;5054800;28;20242;-65
2022/07/10 03:10:14;;;;;;;7.47;5.80;;;16.70;99.90;;;;;;5052930;28;20222;-66
2022/07/10 03:12:41;;;;;;;9.00;6.10;;;16.80;99.90;;;;;;5054237;28;20310;-64
2022/07/10 03:15:09;;;;;;;9.07;6.13;;;16.80;99.90;;;;;;5047599;28;20257;-65
2022/07/10 03:17:36;;;;;;;8.83;5.53;;;16.80;99.90;;;;;;5034588;28;20278;-64
2022/07/10 03:20:06;;;;;;;9.00;5.77;;;16.80;99.90;;;;;;5041279;28;20295;-64
2022/07/10 03:22:33;;;;;;;11.60;6.13;;;16.80;99.90;;;;;;5054335;28;20296;-66
2022/07/10 03:25:00;;;;;;;9.50;6.00;;;16.90;99.90;;;;;;5061848;28;20203;-65
2022/07/10 03:27:27;;;;;;;6.93;5.63;;;16.90;99.90;;;;;;5071853;28;20614;-64
2022/07/10 03:29:54;;;;;;;10.40;6.40;;;17.00;99.90;;;;;;5046067;28;20229;-66
2022/07/10 03:32:21;;;;;;;8.60;6.00;;;17.10;99.90;;;;;;5054370;28;20303;-65
2022/07/10 03:34:48;;;;;;;8.33;5.60;;;17.10;99.90;;;;;;5053886;28;20671;-65
2022/07/10 03:37:16;;;;;;;7.40;5.47;;;17.20;99.90;;;;;;5054007;28;20303;-65
2022/07/10 03:39:43;;;;;;;9.07;5.60;;;17.20;99.90;;;;;;5053030;28;20201;-64
2022/07/10 03:42:10;;;;;;;6.50;5.03;;;17.20;99.90;;;;;;5054085;28;20292;-66
2022/07/10 03:44:36;;;;;;;7.07;5.00;;;17.30;99.90;;;;;;5054380;28;20631;-65
2022/07/10 03:47:04;;;;;;;5.57;4.70;;;17.30;99.90;;;;;;5053958;28;20714;-66
2022/07/10 03:49:31;;;;;;;7.07;5.30;;;17.30;99.90;;;;;;5039916;28;20262;-64
2022/07/10 03:52:01;;;;;;;6.67;5.00;;;17.40;99.90;;;;;;5033957;28;20202;-66
2022/07/10 03:54:30;;;;;;;7.43;4.73;;;17.40;99.90;;;;;;5033958;28;20271;-65
2022/07/10 03:59:41;;;;;;;6.43;5.30;;;17.50;99.90;;;;;;5050996;28;20824;-66
2022/07/10 04:02:08;;;;;;;6.70;4.50;;;17.50;99.90;;;;;;5060745;28;20228;-65
2022/07/10 04:04:35;;;;;;;5.73;4.70;;;17.40;99.90;;;;;;5072160;28;20243;-65
2022/07/10 04:07:03;;;;;;;8.90;4.60;;;17.40;99.90;;;;;;5073633;28;20209;-67
2022/07/10 04:09:32;;;;;;;5.70;4.50;;;17.40;99.90;;;;;;5046765;28;20296;-66
2022/07/10 04:11:59;;;;;;;6.50;4.53;;;17.40;99.90;;;;;;5033440;28;20298;-66
2022/07/10 04:14:26;;;;;;;7.13;4.40;;;17.40;99.90;;;;;;5036836;28;20295;-65
2022/07/10 04:16:52;;;;;;;7.07;4.50;;;17.40;99.90;;;;;;5039019;28;20547;-67
2022/07/10 04:19:21;;;;;;;7.47;4.60;;;17.50;99.90;;;;;;5050272;28;20730;-66
2022/07/10 04:21:48;;;;;;;8.60;4.30;;;17.50;99.90;;;;;;5051057;28;20254;-66
2022/07/10 04:24:15;;;;;;;7.47;4.60;;;17.50;99.90;;;;;;5050995;28;20205;-64
2022/07/10 04:26:43;;;;;;;7.97;4.60;;;17.60;99.90;;;;;;5053390;28;20219;-66
2022/07/10 04:29:10;;;;;;;4.93;4.23;;;17.60;99.90;;;;;;5052240;28;20302;-64
2022/07/10 04:31:37;;;;;;;5.73;4.60;;;17.60;99.90;;;;;;5050595;28;20993;-66
2022/07/10 04:34:04;;;;;;;6.43;4.40;;;17.60;99.90;;;;;;5052216;28;20335;-66
2022/07/10 04:36:31;;;;;;;8.33;4.60;;;17.70;99.90;;;;;;5053213;28;20656;-67
2022/07/10 04:39:02;;;;;;;4.70;4.00;;;17.80;99.90;;;;;;5047821;28;20198;-66
2022/07/10 04:41:30;;;;;;;6.33;4.37;;;17.80;99.90;;;;;;5031567;28;20858;-66
2022/07/10 04:43:58;;;;;;;5.53;4.33;;;17.80;99.90;;;;;;5032573;28;20295;-66
2022/07/10 04:46:25;;;;;;;7.30;4.40;;;17.90;99.90;;;;;;5032505;28;20247;-66
2022/07/10 04:48:52;;;;;;;7.07;4.60;;;17.90;99.90;;;;;;5046906;28;20206;-65
2022/07/10 04:51:19;;;;;;;5.50;4.20;;;18.00;99.90;;;;;;5050411;28;20233;-65
2022/07/10 04:53:46;;;;;;;6.07;4.10;;;18.10;99.90;;;;;;5051119;28;20716;-65
2022/07/10 04:56:13;;;;;;;5.63;3.90;;;18.20;99.90;;;;;;5043057;28;20212;-67
2022/07/10 04:58:40;;;;;;;4.83;3.83;;;18.20;99.90;;;;;;5033081;28;20214;-66
2022/07/10 05:01:08;;;;;;;5.20;4.30;;;18.30;99.90;;;;;;5032674;28;20303;-66
2022/07/10 05:03:35;;;;;;;4.57;3.60;;;18.40;99.90;;;;;;5040758;28;20296;-66
2022/07/10 05:06:02;;;;;;;3.70;3.13;;;18.50;99.90;;;;;;5052264;28;20293;-66
2022/07/10 05:08:29;;;;;;;4.03;3.27;;;18.60;99.90;;;;;;5052740;28;20211;-68
2022/07/10 05:10:56;;;;;;;4.93;3.53;;;18.70;99.90;;;;;;5052033;28;20230;-65
2022/07/10 05:13:23;;;;;;;4.93;3.47;;;18.80;99.90;;;;;;5047097;28;20736;-66
2022/07/10 05:15:50;;;;;;;4.87;3.13;;;18.90;99.90;;;;;;5032568;28;20282;-68
2022/07/10 05:18:19;;;;;;;6.20;3.30;;;18.90;99.90;;;;;;5032671;28;20745;-66
2022/07/10 05:20:47;;;;;;;3.77;3.33;;;19.00;99.90;;;;;;5032757;28;20207;-67
2022/07/10 05:23:15;;;;;;;6.40;3.20;;;19.10;99.90;;;;;;5042410;28;20202;-65
2022/07/10 05:25:41;;;;;;;4.97;3.03;;;19.20;99.90;;;;;;5052349;28;20207;-65
2022/07/10 05:28:09;;;;;;;3.77;3.03;;;19.40;99.90;;;;;;5031982;28;20244;-64
2022/07/10 05:30:36;;;;;;;3.50;2.73;;;19.50;99.90;;;;;;5032258;28;20224;-66
2022/07/10 05:33:03;;;;;;;3.97;3.03;;;19.60;99.90;;;;;;5031834;28;20203;-66
2022/07/10 05:35:31;;;;;;;6.07;3.07;;;19.70;99.90;;;;;;5032082;28;20785;-67
2022/07/10 05:37:58;;;;;;;4.10;3.17;;;19.80;99.90;;;;;;5043245;28;20239;-66
2022/07/10 05:40:25;;;;;;;3.37;2.87;;;19.80;99.90;;;;;;5051197;28;20292;-66
2022/07/10 05:42:52;;;;;;;4.20;2.77;;;19.90;99.90;;;;;;5052209;28;20618;-66
2022/07/10 05:45:19;;;;;;;3.90;2.70;;;19.90;99.90;;;;;;5051788;28;20213;-67
2022/07/10 05:47:46;;;;;;;6.30;2.80;;;19.80;99.90;;;;;;5037593;28;20295;-68
2022/07/10 05:50:13;;;;;;;5.20;2.83;;;19.90;99.90;;;;;;5031795;28;20227;-67
2022/07/10 05:52:42;;;;;;;3.83;3.00;;;19.80;99.90;;;;;;5031899;28;20603;-66
2022/07/10 05:55:09;;;;;;;4.30;2.80;;;19.90;99.90;;;;;;5031827;28;20214;-66
2022/07/10 05:57:36;;;;;;;3.40;2.83;;;20.00;99.90;;;;;;5033889;28;20289;-66
2022/07/10 06:00:05;;;;;;;3.23;2.50;;;20.20;99.90;;;;;;5035549;28;20290;-64
2022/07/10 06:02:32;;;;;;;4.13;2.50;;;20.40;99.90;;;;;;5049613;28;20281;-65
2022/07/10 06:04:59;;;;;;;3.73;2.50;;;20.50;99.90;;;;;;5044170;28;20225;-66
2022/07/10 06:07:26;;;;;;;3.60;2.90;;;20.70;99.90;;;;;;5031632;28;20255;-67
2022/07/10 06:09:55;;;;;;;4.50;2.83;;;20.70;99.90;;;;;;5031692;28;20617;-67
2022/07/10 06:12:22;;;;;;;4.73;2.93;;;20.70;99.90;;;;;;5031365;28;20232;-67
2022/07/10 06:14:49;;;;;;;3.53;2.70;;;20.80;99.90;;;;;;5034886;28;20600;-67
2022/07/10 06:17:16;;;;;;;4.00;3.07;;;20.80;99.90;;;;;;5039736;28;20202;-67
2022/07/10 06:19:43;;;;;;;5.27;2.97;;;20.80;99.90;;;;;;5038351;28;20206;-66
2022/07/10 06:24:55;;;;;;;4.23;2.90;;;21.00;99.90;;;;;;5031395;28;20184;-65
2022/07/10 06:27:22;;;;;;;4.27;3.00;;;21.00;99.90;;;;;;5031761;28;20259;-64
2022/07/10 06:29:49;;;;;;;5.50;3.27;;;21.10;99.90;;;;;;5031106;28;20293;-65
2022/07/10 06:32:16;;;;;;;6.27;3.70;;;21.30;99.90;;;;;;5030485;28;20264;-67
2022/07/10 06:34:43;;;;;;;3.77;3.10;;;21.30;99.90;;;;;;5031084;28;20665;-65
2022/07/10 06:37:10;;;;;;;4.33;2.87;;;21.50;99.90;;;;;;5031369;28;20256;-67
2022/07/10 06:39:37;;;;;;;2.90;2.60;;;21.50;99.90;;;;;;5031516;28;20294;-67
2022/07/10 06:42:06;;;;;;;4.03;2.97;;;21.60;99.90;;;;;;5037464;28;20197;-65
2022/07/10 06:44:33;;;;;;;6.07;3.03;;;21.70;99.90;;;;;;5051105;28;20263;-64
2022/07/10 06:49:47;;;;;;;4.83;2.60;;;21.60;99.90;;;;;;5050827;28;20312;-66
2022/07/10 06:52:15;;;;;;;5.10;3.03;;;21.60;99.90;;;;;;5039309;28;20230;-66
2022/07/10 06:54:42;;;;;;;4.77;3.27;;;21.50;99.90;;;;;;5035006;28;20208;-66
2022/07/10 06:57:11;;;;;;;4.40;2.90;;;21.50;99.90;;;;;;5035002;28;20867;-66
2022/07/10 06:59:38;;;;;;;6.10;3.40;;;21.50;99.90;;;;;;5035028;28;20597;-66
2022/07/10 07:02:05;;;;;;;4.50;2.90;;;21.40;99.90;;;;;;5036782;28;20300;-71
2022/07/10 07:04:32;;;;;;;8.03;3.10;;;21.30;99.90;;;;;;5035214;28;20293;-68
2022/07/10 07:06:59;;;;;;;4.93;3.10;;;21.40;99.90;;;;;;5034561;28;20301;-70
2022/07/10 07:09:26;;;;;;;4.63;3.10;;;21.40;99.90;;;;;;5034801;28;20210;-68
2022/07/10 07:11:53;;;;;;;4.73;3.20;;;21.40;99.90;;;;;;5034388;28;20306;-67
2022/07/10 07:14:21;;;;;;;5.83;3.30;;;21.40;99.90;;;;;;5035132;28;20650;-68
2022/07/10 07:16:57;;;;;;;5.00;3.23;;;21.50;99.90;;;;;;5034830;28;20290;-68
2022/07/10 07:19:30;;;;;;;8.23;3.13;;;21.40;99.90;;;;;;5035309;28;20212;-67
2022/07/10 07:24:42;;;;;;;4.27;2.80;;;21.40;99.90;;;;;;5034180;28;20234;-67
2022/07/10 07:27:09;;;;;;;6.30;3.20;;;21.50;99.90;;;;;;5034339;28;20215;-69
2022/07/10 07:29:38;;;;;;;4.13;3.20;;;21.50;99.90;;;;;;5034298;28;20374;-70
2022/07/10 07:32:06;;;;;;;3.90;3.03;;;21.50;99.90;;;;;;5034744;28;20755;-68
2022/07/10 07:34:33;;;;;;;6.53;3.13;;;21.50;99.90;;;;;;5032937;28;20330;-69
2022/07/10 07:37:00;;;;;;;3.33;2.87;;;21.60;99.90;;;;;;5038768;28;20293;-69
2022/07/10 07:39:26;;;;;;;6.40;3.30;;;21.60;99.90;;;;;;5043801;28;20251;-67
2022/07/10 07:41:53;;;;;;;4.97;3.20;;;21.60;99.90;;;;;;5037403;28;20301;-67
2022/07/10 07:44:20;;;;;;;4.03;3.03;;;21.70;99.90;;;;;;5049492;28;20220;-69
2022/07/10 07:46:49;;;;;;;3.70;3.20;;;21.80;99.90;;;;;;5053755;28;20243;-68
2022/07/10 07:49:15;;;;;;;3.57;3.00;;;21.90;99.90;;;;;;5054411;28;20292;-68
2022/07/10 07:51:42;;;;;;;4.53;2.90;;;21.90;99.90;;;;;;5053956;28;20318;-68
2022/07/10 07:54:09;;;;;;;3.53;3.00;;;22.10;99.90;;;;;;5053912;28;20212;-68
2022/07/10 07:56:36;;;;;;;3.83;3.00;;;22.30;99.90;;;;;;5053505;28;20295;-68
2022/07/10 07:59:03;;;;;;;4.20;3.00;;;22.30;99.90;;;;;;5039525;28;20230;-69
2022/07/10 08:01:30;;;;;;;3.67;3.20;;;22.40;99.90;;;;;;5053546;28;20257;-68
2022/07/10 08:03:58;;;;;;;3.03;2.73;;;22.60;99.90;;;;;;5052902;28;20210;-71
2022/07/10 08:06:25;;;;;;;4.03;3.00;;;22.70;99.90;;;;;;5053500;28;20215;-69
2022/07/10 08:08:52;;;;;;;3.67;2.50;;;22.70;99.90;;;;;;5053685;28;20208;-68
2022/07/10 08:11:19;;;;;;;4.47;2.90;;;22.80;99.90;;;;;;5053915;28;20318;-68
2022/07/10 08:13:46;;;;;;;4.80;3.43;;;22.90;99.90;;;;;;5053251;28;20297;-66
2022/07/10 08:16:13;;;;;;;5.97;2.87;;;23.00;99.90;;;;;;5034424;28;20217;-68
2022/07/10 08:18:39;;;;;;;3.63;2.87;;;23.10;99.90;;;;;;5034184;28;20679;-67
2022/07/10 08:21:08;;;;;;;4.43;2.90;;;23.10;99.90;;;;;;5053678;28;20238;-68
2022/07/10 08:23:35;;;;;;;4.50;2.97;;;23.00;99.90;;;;;;5053671;28;20292;-66
2022/07/10 08:26:02;;;;;;;5.30;3.30;;;23.10;99.90;;;;;;5053274;28;20225;-68
2022/07/10 08:28:29;;;;;;;3.33;2.60;;;23.20;99.90;;;;;;5053382;28;20291;-68
2022/07/10 08:30:56;;;;;;;5.73;2.80;;;23.30;99.90;;;;;;5052785;28;20283;-68
2022/07/10 08:33:23;;;;;;;3.33;2.70;;;23.30;99.90;;;;;;5049769;28;20205;-68
2022/07/10 08:35:50;;;;;;;6.63;4.80;;;23.40;99.90;;;;;;5033790;28;20631;-67
2022/07/10 08:38:18;;;;;;;5.20;2.97;;;23.50;99.90;;;;;;5033633;28;20210;-68
2022/07/10 08:40:46;;;;;;;3.83;2.70;;;23.40;99.90;;;;;;5040437;28;20203;-70
2022/07/10 08:43:13;;;;;;;4.03;2.70;;;23.50;99.90;;;;;;5037768;28;20305;-68
2022/07/10 08:45:41;;;;;;;11.00;2.77;;;23.70;99.90;;;;;;5036549;28;20233;-68
2022/07/10 08:48:10;;;;;;;4.97;2.90;;;23.80;99.90;;;;;;5033112;28;20208;-66
2022/07/10 08:50:43;;;;;;;3.87;2.80;;;23.60;99.90;;;;;;5045393;28;20220;-69
2022/07/10 08:53:13;;;;;;;4.90;2.60;;;23.60;99.90;;;;;;5032898;28;20213;-68
2022/07/10 08:55:41;;;;;;;3.97;2.70;;;23.70;99.90;;;;;;5042480;28;20243;-67
2022/07/10 08:58:09;;;;;;;3.17;2.53;;;23.80;99.90;;;;;;5049387;28;20567;-69
2022/07/10 09:00:36;;;;;;;4.63;2.73;;;23.80;99.90;;;;;;5037794;28;20209;-68
2022/07/10 09:03:03;;;;;;;3.40;2.63;;;23.70;99.90;;;;;;5045041;28;20291;-68
2022/07/10 09:05:30;;;;;;;4.63;2.93;;;23.70;99.90;;;;;;5048061;28;20224;-68
2022/07/10 09:07:57;;;;;;;3.57;2.90;;;23.70;99.90;;;;;;5033104;28;20569;-70
2022/07/10 09:10:26;;;;;;;3.20;2.70;;;23.70;99.90;;;;;;5032112;28;20640;-67
2022/07/10 09:12:56;;;;;;;3.10;2.60;;;23.80;99.90;;;;;;5038392;28;20293;-67
2022/07/10 09:15:25;;;;;;;5.07;2.60;;;23.90;99.90;;;;;;5052468;28;20208;-68
2022/07/10 09:17:53;;;;;;;3.97;2.50;;;23.90;99.90;;;;;;5039423;28;20208;-66
2022/07/10 09:20:29;;;;;;;4.10;2.70;;;24.00;99.90;;;;;;5034107;28;20639;-68
2022/07/10 09:22:57;;;;;;;3.07;2.37;;;24.10;99.90;;;;;;5050107;28;20201;-68
2022/07/10 09:25:34;;;;;;;4.27;2.73;;;24.10;99.90;;;;;;5052388;28;20248;-67
2022/07/10 09:28:06;;;;;;;3.97;3.13;;;24.10;99.90;;;;;;5051969;28;20275;-68
2022/07/10 09:30:37;;;;;;;5.22;2.58;;;24.20;99.90;;;;;;5049111;28;20207;-68
2022/07/10 09:33:27;;;;;;;3.43;2.17;;;24.30;99.90;;;;;;5052002;28;20234;-68
2022/07/10 09:36:08;;;;;;;3.47;2.60;;;24.30;99.90;;;;;;5052127;28;20614;-67
2022/07/10 09:38:52;;;;;;;3.53;2.57;;;24.20;99.90;;;;;;5051472;28;20192;-68
2022/07/10 09:41:21;;;;;;;3.58;2.42;;;24.10;99.90;;;;;;5052185;28;20296;-71
2022/07/10 09:43:50;;;;;;;3.17;2.40;;;24.10;99.90;;;;;;5052725;28;20209;-69
2022/07/10 09:46:19;;;;;;;4.28;2.60;;;24.10;99.90;;;;;;5051703;28;20718;-68
2022/07/10 09:48:46;;;;;;;3.85;2.22;;;23.90;99.90;;;;;;5052137;28;20298;-67
2022/07/10 09:51:13;;;;;;;3.77;2.47;;;23.80;99.90;;;;;;5051930;28;20643;-68
2022/07/10 09:53:41;;;;;;;3.70;2.27;;;23.70;99.90;;;;;;5051969;28;20211;-69
2022/07/10 09:56:09;;;;;;;2.93;2.20;;;23.80;99.90;;;;;;5050988;28;20208;-68
2022/07/10 09:58:37;;;;;;;4.37;2.47;;;23.90;99.90;;;;;;5032211;28;20209;-67
2022/07/10 10:01:07;;;;;;;3.53;2.30;;;24.10;99.90;;;;;;5031802;28;20205;-67
2022/07/10 10:03:35;;;;;;;2.93;2.37;;;24.10;99.90;;;;;;5031768;28;20294;-67
2022/07/10 10:06:12;;;;;;;2.90;2.10;;;24.10;99.90;;;;;;5040705;28;20223;-66
2022/07/10 10:08:49;;;;;;;2.67;2.13;;;24.10;99.90;;;;;;5035158;28;20229;-67
2022/07/10 10:11:21;;;;;;;3.43;2.20;;;24.10;99.90;;;;;;5031188;28;20203;-70
2022/07/10 10:13:49;;;;;;;2.40;2.07;;;24.10;99.90;;;;;;5031799;28;20288;-71
2022/07/10 10:16:20;;;;;;;3.10;2.43;;;24.00;99.90;;;;;;5031139;28;20201;-69
2022/07/10 10:21:33;;;;;;;3.03;2.30;;;23.90;99.90;;;;;;5031589;28;20423;-65
2022/07/10 10:24:02;;;;;;;4.03;2.30;;;24.10;99.90;;;;;;5031106;28;20285;-66
2022/07/10 10:26:29;;;;;;;3.95;2.05;;;24.10;99.90;;;;;;5032853;28;20645;-67
2022/07/10 10:28:59;;;;;;;4.47;1.90;;;24.00;99.90;;;;;;5037852;28;20292;-66
2022/07/10 10:31:28;;;;;;;2.50;2.10;;;23.90;99.90;;;;;;5038078;28;20221;-65
2022/07/10 10:33:56;;;;;;;2.10;1.80;;;24.00;99.90;;;;;;5035806;28;20241;-67
2022/07/10 10:36:45;;;;;;;4.33;2.43;;;24.10;99.90;;;;;;5043714;28;20291;-68
2022/07/10 10:39:16;;;;;;;5.87;2.10;;;24.20;99.90;;;;;;5035489;28;20663;-65
2022/07/10 10:41:46;;;;;;;2.70;2.00;;;24.30;99.90;;;;;;5051935;28;20644;-64
2022/07/10 10:44:37;;;;;;;4.32;2.35;;;24.30;99.90;;;;;;5055377;28;20289;-65
2022/07/10 10:47:07;;;;;;;4.03;2.40;;;24.50;99.90;;;;;;5053574;28;20226;-68
2022/07/10 10:50:04;;;;;;;2.50;2.30;;;24.40;99.90;;;;;;5035254;28;20295;-64
2022/07/10 10:52:32;;;;;;;4.77;2.50;;;24.30;99.90;;;;;;5041167;28;20654;-64
2022/07/10 10:55:08;;;;;;;4.23;2.47;;;24.30;99.90;;;;;;5055245;28;20283;-66
2022/07/10 10:57:51;;;;;;;3.13;2.43;;;24.30;99.90;;;;;;5054648;28;20573;-66
2022/07/10 11:00:40;;;;;;;2.87;2.13;;;24.30;99.90;;;;;;5054250;28;20632;-67
2022/07/10 11:03:26;;;;;;;4.20;2.60;;;24.20;99.90;;;;;;5053668;28;20280;-66
2022/07/10 11:05:53;;;;;;;2.90;2.27;;;24.20;99.90;;;;;;5033570;28;20202;-65
2022/07/10 11:08:41;;;;;;;4.77;2.40;;;24.20;99.90;;;;;;5033809;28;20212;-65
2022/07/10 11:11:42;;;;;;;5.17;3.93;;;24.30;99.90;;;;;;5034096;28;20206;-64
2022/07/10 11:14:11;;;;;;;2.47;2.13;;;24.40;99.90;;;;;;5034398;28;20206;-67
2022/07/10 11:16:48;;;;;;;3.30;2.10;;;24.30;99.90;;;;;;5034284;28;20221;-65
2022/07/10 11:19:24;;;;;;;4.73;2.17;;;24.40;99.90;;;;;;5037545;28;20569;-65
2022/07/10 11:21:59;;;;;;;3.03;1.90;;;24.40;99.90;;;;;;5034048;28;20216;-66
2022/07/10 11:24:41;;;;;;;5.72;2.10;;;24.50;99.90;;;;;;5034294;28;20684;-66
2022/07/10 11:27:29;;;;;;;2.78;2.45;;;24.50;99.90;;;;;;5034262;28;20262;-66
2022/07/10 11:30:00;;;;;;;3.57;2.30;;;24.50;99.90;;;;;;5034472;28;20283;-67
2022/07/10 11:32:28;;;;;;;2.47;1.98;;;24.50;99.90;;;;;;5034309;28;20318;-65
2022/07/10 11:34:56;;;;;;;2.55;1.95;;;24.50;99.90;;;;;;5034183;28;20728;-67
2022/07/10 11:37:28;;;;;;;2.23;1.77;;;24.50;99.90;;;;;;5033430;28;20205;-66
2022/07/10 11:40:09;;;;;;;3.42;2.35;;;24.50;99.90;;;;;;5034075;28;20225;-66
2022/07/10 11:42:52;;;;;;;2.60;2.00;;;24.50;99.90;;;;;;5034432;28;20277;-65
2022/07/10 11:45:27;;;;;;;3.60;1.87;;;24.50;99.90;;;;;;5034142;28;20241;-65
2022/07/10 11:47:54;;;;;;;3.27;1.70;;;24.60;99.90;;;;;;5034088;28;20198;-67
2022/07/10 11:50:23;;;;;;;2.20;1.67;;;24.70;99.90;;;;;;5034455;28;20261;-65
2022/07/10 11:52:50;;;;;;;3.92;2.05;;;24.80;99.90;;;;;;5034122;28;20315;-66
2022/07/10 11:55:18;;;;;;;2.83;1.67;;;24.80;99.90;;;;;;5034062;28;20698;-63
2022/07/10 11:57:48;;;;;;;2.08;1.65;;;24.80;99.90;;;;;;5033805;28;20214;-64
2022/07/10 12:00:23;;;;;;;3.13;2.53;;;24.90;99.90;;;;;;5032979;28;20219;-63
2022/07/10 12:02:50;;;;;;;1.92;1.70;;;25.00;99.90;;;;;;5046842;28;20200;-64
2022/07/10 12:05:33;;;;;;;2.85;1.77;;;25.00;99.90;;;;;;5034284;28;20210;-63
2022/07/10 12:08:00;;;;;;;3.40;2.00;;;25.00;99.90;;;;;;5041431;28;20557;-63
2022/07/10 12:10:27;;;;;;;3.15;1.80;;;24.90;99.90;;;;;;5053635;28;20606;-63
2022/07/10 12:12:54;;;;;;;2.53;2.00;;;24.80;99.90;;;;;;5044761;28;20255;-63
2022/07/10 12:15:36;;;;;;;2.97;2.13;;;24.70;99.90;;;;;;5051860;28;20297;-63
2022/07/10 12:18:03;;;;;;;2.43;1.80;;;24.70;99.90;;;;;;5060927;28;20261;-61
2022/07/10 12:20:32;;;;;;;3.17;2.20;;;24.60;99.90;;;;;;5047615;28;20278;-64
2022/07/10 12:22:59;;;;;;;4.30;2.10;;;24.60;99.90;;;;;;5056272;28;20596;-64
2022/07/10 12:25:27;;;;;;;2.77;2.40;;;24.50;99.90;;;;;;5039154;28;20310;-66
2022/07/10 12:27:57;;;;;;;2.00;1.70;;;24.40;99.90;;;;;;5032942;28;20286;-67
2022/07/10 12:30:24;;;;;;;2.73;1.87;;;24.40;99.90;;;;;;5033639;28;20560;-64
2022/07/10 12:32:51;;;;;;;2.83;1.83;;;24.50;99.90;;;;;;5049866;28;20232;-67
2022/07/10 12:35:20;;;;;;;1.93;1.80;;;24.50;99.90;;;;;;5048752;28;20384;-66
2022/07/10 12:37:52;;;;;;;3.63;1.70;;;24.50;99.90;;;;;;5038858;28;20204;-64
2022/07/10 12:40:31;;;;;;;1.83;1.63;;;24.60;99.90;;;;;;5039220;28;20287;-67
2022/07/10 12:43:06;;;;;;;2.70;1.80;;;24.70;99.90;;;;;;5045813;28;20294;-67
2022/07/10 12:45:33;;;;;;;1.97;1.83;;;24.70;99.90;;;;;;5051690;28;20226;-65
2022/07/10 12:48:00;;;;;;;2.10;1.63;;;24.80;99.90;;;;;;5034219;28;20390;-65
2022/07/10 12:50:27;;;;;;;1.83;1.63;;;24.70;99.90;;;;;;5031729;28;20299;-67
2022/07/10 12:53:11;;;;;;;3.80;1.90;;;24.70;99.90;;;;;;5058645;28;20343;-66
2022/07/10 12:55:40;;;;;;;2.13;1.70;;;24.80;99.90;;;;;;5057010;28;20245;-66
2022/07/10 12:58:11;;;;;;;3.57;1.80;;;24.90;99.90;;;;;;5057551;28;20689;-66
2022/07/10 13:00:45;;;;;;;2.67;1.60;;;24.90;99.90;;;;;;5054932;28;20195;-68
2022/07/10 13:03:18;;;;;;;2.70;1.65;;;25.00;99.90;;;;;;5055031;28;20231;-70
2022/07/10 13:05:45;;;;;;;3.10;2.20;;;25.10;99.90;;;;;;5058784;28;20231;-68
2022/07/10 13:08:16;;;;;;;1.90;1.70;;;25.10;99.90;;;;;;5058130;28;20211;-67
2022/07/10 13:10:46;;;;;;;2.73;1.70;;;25.00;99.90;;;;;;5063389;28;20251;-66